sensor_id;sensor_type;location;lat;lon;timestamp;pressure;altitude;pressure_sealevel;temperature;humidity
47753;BME280;2038;51.728;6.674;2023-07-16T00:01:13;100256.81;;;20.07;100.00
47753;BME280;2038;51.728;6.674;2023-07-16T00:03:39;100253.19;;;19.99;100.00
47753;BME280;2038;51.728;6.674;2023-07-16T00:06:05;100257.59;;;20.02;100.00
47753;BME280;2038;51.728;6.674;2023-07-16T00:08:31;100250.84;;;20.12;100.00
47753;BME280;2038;51.728;6.674;2023-07-16T00:10:58;100258.38;;;19.98;100.00
47753;BME280;2038;51.728;6.674;2023-07-16T00:13:24;100253.19;;;19.99;100.00
47753;BME280;2038;51.728;6.674;2023-07-16T00:15:50;100262.91;;;20.09;100.00
47753;BME280;2038;51.728;6.674;2023-07-16T00:18:16;100271.41;;;20.04;100.00
47753;BME280;2038;51.728;6.674;2023-07-16T00:20:42;100272.06;;;19.94;100.00
47753;BME280;2038;51.728;6.674;2023-07-16T00:23:09;100283.66;;;20.14;100.00
47753;BME280;2038;51.728;6.674;2023-07-16T00:25:35;100284.13;;;19.93;100.00
47753;BME280;2038;51.728;6.674;2023-07-16T00:28:01;100292.78;;;19.95;100.00
47753;BME280;2038;51.728;6.674;2023-07-16T00:30:28;100289.47;;;20.01;100.00
47753;BME280;2038;51.728;6.674;2023-07-16T00:32:54;100285.91;;;19.96;100.00
47753;BME280;2038;51.728;6.674;2023-07-16T00:35:20;100277.66;;;20.15;100.00
47753;BME280;2038;51.728;6.674;2023-07-16T00:37:46;100274.09;;;20.10;100.00
47753;BME280;2038;51.728;6.674;2023-07-16T00:40:13;100273.16;;;20.06;100.00
47753;BME280;2038;51.728;6.674;2023-07-16T00:42:39;100273.38;;;19.74;100.00
47753;BME280;2038;51.728;6.674;2023-07-16T00:45:11;100288.97;;;19.77;100.00
47753;BME280;2038;51.728;6.674;2023-07-16T00:47:42;100290.25;;;19.56;100.00
47753;BME280;2038;51.728;6.674;2023-07-16T00:50:11;100282.50;;;19.56;100.00
47753;BME280;2038;51.728;6.674;2023-07-16T00:52:38;100274.06;;;19.67;100.00
47753;BME280;2038;51.728;6.674;2023-07-16T00:55:06;100284.31;;;19.60;100.00
47753;BME280;2038;51.728;6.674;2023-07-16T00:57:33;100286.22;;;19.71;100.00
47753;BME280;2038;51.728;6.674;2023-07-16T00:59:59;100281.19;;;19.77;100.00
47753;BME280;2038;51.728;6.674;2023-07-16T01:02:26;100278.47;;;19.71;100.00
47753;BME280;2038;51.728;6.674;2023-07-16T01:04:53;100275.78;;;19.65;100.00
47753;BME280;2038;51.728;6.674;2023-07-16T01:07:23;100278.41;;;19.68;100.00
47753;BME280;2038;51.728;6.674;2023-07-16T01:09:54;100283.88;;;19.42;100.00
47753;BME280;2038;51.728;6.674;2023-07-16T01:12:22;100279.06;;;19.57;100.00
47753;BME280;2038;51.728;6.674;2023-07-16T01:14:50;100279.03;;;19.56;100.00
47753;BME280;2038;51.728;6.674;2023-07-16T01:17:18;100280.78;;;19.57;100.00
47753;BME280;2038;51.728;6.674;2023-07-16T01:19:44;100275.47;;;19.51;100.00
47753;BME280;2038;51.728;6.674;2023-07-16T01:30:27;100284.03;;;19.50;100.00
47753;BME280;2038;51.728;6.674;2023-07-16T01:32:55;100286.72;;;19.53;100.00
47753;BME280;2038;51.728;6.674;2023-07-16T01:35:23;100282.13;;;19.41;100.00
47753;BME280;2038;51.728;6.674;2023-07-16T01:37:51;100286.63;;;19.50;100.00
47753;BME280;2038;51.728;6.674;2023-07-16T01:40:17;100288.31;;;19.48;100.00
47753;BME280;2038;51.728;6.674;2023-07-16T01:42:43;100296.19;;;19.52;100.00
47753;BME280;2038;51.728;6.674;2023-07-16T01:45:10;100299.56;;;19.50;100.00
47753;BME280;2038;51.728;6.674;2023-07-16T01:50:14;100298.41;;;19.39;100.00
47753;BME280;2038;51.728;6.674;2023-07-16T01:52:40;100303.84;;;19.48;100.00
47753;BME280;2038;51.728;6.674;2023-07-16T01:55:06;100308.03;;;19.43;100.00
47753;BME280;2038;51.728;6.674;2023-07-16T01:57:33;100306.47;;;19.51;100.00
47753;BME280;2038;51.728;6.674;2023-07-16T01:59:59;100301.19;;;19.46;100.00
47753;BME280;2038;51.728;6.674;2023-07-16T02:02:25;100306.16;;;19.37;100.00
47753;BME280;2038;51.728;6.674;2023-07-16T02:04:51;100318.91;;;19.31;100.00
47753;BME280;2038;51.728;6.674;2023-07-16T02:07:18;100318.13;;;19.34;100.00
47753;BME280;2038;51.728;6.674;2023-07-16T02:09:44;100313.28;;;19.47;100.00
47753;BME280;2038;51.728;6.674;2023-07-16T02:12:10;100309.06;;;19.51;100.00
47753;BME280;2038;51.728;6.674;2023-07-16T02:14:36;100306.66;;;19.58;100.00
47753;BME280;2038;51.728;6.674;2023-07-16T02:17:03;100301.53;;;19.60;100.00
47753;BME280;2038;51.728;6.674;2023-07-16T02:19:29;100301.47;;;19.58;100.00
47753;BME280;2038;51.728;6.674;2023-07-16T02:21:55;100294.59;;;19.57;100.00
47753;BME280;2038;51.728;6.674;2023-07-16T02:24:22;100296.13;;;19.49;100.00
47753;BME280;2038;51.728;6.674;2023-07-16T02:26:48;100312.63;;;19.56;100.00
47753;BME280;2038;51.728;6.674;2023-07-16T02:29:14;100303.00;;;19.50;100.00
47753;BME280;2038;51.728;6.674;2023-07-16T02:31:41;100307.31;;;19.50;100.00
47753;BME280;2038;51.728;6.674;2023-07-16T02:34:09;100313.34;;;19.50;100.00
47753;BME280;2038;51.728;6.674;2023-07-16T02:36:35;100316.66;;;19.43;100.00
47753;BME280;2038;51.728;6.674;2023-07-16T02:39:01;100328.00;;;19.50;100.00
47753;BME280;2038;51.728;6.674;2023-07-16T02:41:27;100321.09;;;19.49;100.00
47753;BME280;2038;51.728;6.674;2023-07-16T02:44:05;100323.69;;;19.50;100.00
47753;BME280;2038;51.728;6.674;2023-07-16T02:46:32;100332.31;;;19.51;100.00
47753;BME280;2038;51.728;6.674;2023-07-16T02:48:58;100327.97;;;19.48;100.00
47753;BME280;2038;51.728;6.674;2023-07-16T02:51:25;100330.91;;;19.28;100.00
47753;BME280;2038;51.728;6.674;2023-07-16T02:53:51;100331.34;;;19.46;100.00
47753;BME280;2038;51.728;6.674;2023-07-16T02:56:17;100323.56;;;19.44;100.00
47753;BME280;2038;51.728;6.674;2023-07-16T02:58:43;100326.88;;;19.40;100.00
47753;BME280;2038;51.728;6.674;2023-07-16T03:01:10;100333.00;;;19.42;100.00
47753;BME280;2038;51.728;6.674;2023-07-16T03:03:36;100336.25;;;19.35;100.00
47753;BME280;2038;51.728;6.674;2023-07-16T03:06:03;100329.41;;;19.37;100.00
47753;BME280;2038;51.728;6.674;2023-07-16T03:08:29;100332.81;;;19.36;100.00
47753;BME280;2038;51.728;6.674;2023-07-16T03:10:56;100334.78;;;19.45;100.00
47753;BME280;2038;51.728;6.674;2023-07-16T03:13:23;100327.81;;;19.42;100.00
47753;BME280;2038;51.728;6.674;2023-07-16T03:15:49;100335.66;;;19.45;100.00
47753;BME280;2038;51.728;6.674;2023-07-16T03:18:19;100333.69;;;19.37;100.00
47753;BME280;2038;51.728;6.674;2023-07-16T03:20:46;100341.78;;;19.49;100.00
47753;BME280;2038;51.728;6.674;2023-07-16T03:23:13;100328.75;;;19.46;100.00
47753;BME280;2038;51.728;6.674;2023-07-16T03:25:39;100341.28;;;19.29;100.00
47753;BME280;2038;51.728;6.674;2023-07-16T03:28:05;100348.09;;;19.27;100.00
47753;BME280;2038;51.728;6.674;2023-07-16T03:30:32;100346.34;;;19.26;100.00
47753;BME280;2038;51.728;6.674;2023-07-16T03:32:59;100349.03;;;19.29;100.00
47753;BME280;2038;51.728;6.674;2023-07-16T03:35:26;100354.09;;;19.25;100.00
47753;BME280;2038;51.728;6.674;2023-07-16T03:37:52;100352.28;;;19.22;100.00
47753;BME280;2038;51.728;6.674;2023-07-16T03:40:21;100347.94;;;19.20;100.00
47753;BME280;2038;51.728;6.674;2023-07-16T03:42:50;100351.56;;;19.28;100.00
47753;BME280;2038;51.728;6.674;2023-07-16T03:45:16;100355.25;;;19.01;100.00
47753;BME280;2038;51.728;6.674;2023-07-16T03:47:42;100354.38;;;19.01;100.00
47753;BME280;2038;51.728;6.674;2023-07-16T03:50:09;100354.25;;;18.96;100.00
47753;BME280;2038;51.728;6.674;2023-07-16T03:52:35;100357.00;;;19.04;100.00
47753;BME280;2038;51.728;6.674;2023-07-16T03:55:02;100363.44;;;19.20;100.00
47753;BME280;2038;51.728;6.674;2023-07-16T03:57:29;100365.63;;;19.04;100.00
47753;BME280;2038;51.728;6.674;2023-07-16T03:59:55;100375.91;;;19.01;100.00
47753;BME280;2038;51.728;6.674;2023-07-16T04:02:23;100375.41;;;18.83;100.00
47753;BME280;2038;51.728;6.674;2023-07-16T04:04:50;100381.41;;;18.82;100.00
47753;BME280;2038;51.728;6.674;2023-07-16T04:07:17;100384.16;;;18.88;100.00
47753;BME280;2038;51.728;6.674;2023-07-16T04:09:43;100392.69;;;18.86;100.00
47753;BME280;2038;51.728;6.674;2023-07-16T04:12:09;100400.22;;;18.77;100.00
47753;BME280;2038;51.728;6.674;2023-07-16T04:14:36;100403.53;;;18.73;100.00
47753;BME280;2038;51.728;6.674;2023-07-16T04:17:02;100408.59;;;18.68;100.00
47753;BME280;2038;51.728;6.674;2023-07-16T04:19:28;100413.34;;;18.86;100.00
47753;BME280;2038;51.728;6.674;2023-07-16T04:21:55;100409.19;;;18.91;100.00
47753;BME280;2038;51.728;6.674;2023-07-16T04:24:21;100420.00;;;18.78;100.00
47753;BME280;2038;51.728;6.674;2023-07-16T04:26:47;100415.09;;;18.87;100.00
47753;BME280;2038;51.728;6.674;2023-07-16T04:29:14;100419.38;;;18.85;100.00
47753;BME280;2038;51.728;6.674;2023-07-16T04:31:40;100424.34;;;18.79;100.00
47753;BME280;2038;51.728;6.674;2023-07-16T04:34:06;100419.78;;;18.68;100.00
47753;BME280;2038;51.728;6.674;2023-07-16T04:36:32;100417.94;;;18.64;100.00
47753;BME280;2038;51.728;6.674;2023-07-16T04:38:58;100421.75;;;18.77;100.00
47753;BME280;2038;51.728;6.674;2023-07-16T04:41:25;100424.41;;;18.80;100.00
47753;BME280;2038;51.728;6.674;2023-07-16T04:43:51;100429.00;;;18.92;100.00
47753;BME280;2038;51.728;6.674;2023-07-16T04:46:17;100425.59;;;18.93;100.00
47753;BME280;2038;51.728;6.674;2023-07-16T04:48:43;100427.53;;;18.68;100.00
47753;BME280;2038;51.728;6.674;2023-07-16T04:51:09;100430.84;;;18.64;100.00
47753;BME280;2038;51.728;6.674;2023-07-16T04:53:36;100433.47;;;18.66;100.00
47753;BME280;2038;51.728;6.674;2023-07-16T04:56:02;100437.72;;;18.64;100.00
47753;BME280;2038;51.728;6.674;2023-07-16T04:58:28;100438.00;;;18.75;100.00
47753;BME280;2038;51.728;6.674;2023-07-16T05:00:54;100445.38;;;18.61;100.00
47753;BME280;2038;51.728;6.674;2023-07-16T05:03:21;100440.47;;;18.70;100.00
47753;BME280;2038;51.728;6.674;2023-07-16T05:05:47;100443.91;;;18.70;100.00
47753;BME280;2038;51.728;6.674;2023-07-16T05:08:14;100448.78;;;18.91;100.00
47753;BME280;2038;51.728;6.674;2023-07-16T05:10:41;100450.16;;;18.79;100.00
47753;BME280;2038;51.728;6.674;2023-07-16T05:13:07;100449.56;;;18.87;100.00
47753;BME280;2038;51.728;6.674;2023-07-16T05:15:33;100446.13;;;18.88;100.00
47753;BME280;2038;51.728;6.674;2023-07-16T05:17:59;100457.88;;;19.08;100.00
47753;BME280;2038;51.728;6.674;2023-07-16T05:20:25;100453.72;;;19.13;100.00
47753;BME280;2038;51.728;6.674;2023-07-16T05:22:52;100463.25;;;19.16;100.00
47753;BME280;2038;51.728;6.674;2023-07-16T05:25:18;100467.16;;;19.35;100.00
47753;BME280;2038;51.728;6.674;2023-07-16T05:27:44;100465.09;;;19.53;100.00
47753;BME280;2038;51.728;6.674;2023-07-16T05:30:10;100469.91;;;19.74;100.00
47753;BME280;2038;51.728;6.674;2023-07-16T05:32:37;100472.28;;;19.66;100.00
47753;BME280;2038;51.728;6.674;2023-07-16T05:35:04;100474.41;;;19.82;99.65
47753;BME280;2038;51.728;6.674;2023-07-16T05:37:30;100467.94;;;19.63;99.82
47753;BME280;2038;51.728;6.674;2023-07-16T05:39:56;100474.69;;;19.57;98.31
47753;BME280;2038;51.728;6.674;2023-07-16T05:42:23;100479.09;;;19.62;98.86
47753;BME280;2038;51.728;6.674;2023-07-16T05:44:49;100477.44;;;19.65;99.25
47753;BME280;2038;51.728;6.674;2023-07-16T05:47:15;100487.44;;;19.85;99.11
47753;BME280;2038;51.728;6.674;2023-07-16T05:49:41;100483.69;;;20.10;97.61
47753;BME280;2038;51.728;6.674;2023-07-16T05:52:08;100491.03;;;19.92;97.42
47753;BME280;2038;51.728;6.674;2023-07-16T05:54:35;100488.22;;;19.83;97.23
47753;BME280;2038;51.728;6.674;2023-07-16T05:57:01;100479.09;;;19.97;97.83
47753;BME280;2038;51.728;6.674;2023-07-16T05:59:27;100484.38;;;20.03;97.54
47753;BME280;2038;51.728;6.674;2023-07-16T06:01:53;100482.69;;;20.03;96.60
47753;BME280;2038;51.728;6.674;2023-07-16T06:04:20;100489.66;;;20.07;97.28
47753;BME280;2038;51.728;6.674;2023-07-16T06:06:46;100491.75;;;19.86;97.64
47753;BME280;2038;51.728;6.674;2023-07-16T06:09:12;100490.75;;;19.80;98.48
47753;BME280;2038;51.728;6.674;2023-07-16T06:11:38;100476.56;;;20.00;97.47
47753;BME280;2038;51.728;6.674;2023-07-16T06:14:04;100482.44;;;19.94;95.73
47753;BME280;2038;51.728;6.674;2023-07-16T06:16:31;100489.56;;;20.03;96.53
47753;BME280;2038;51.728;6.674;2023-07-16T06:18:57;100492.03;;;19.97;95.99
47753;BME280;2038;51.728;6.674;2023-07-16T06:21:23;100496.25;;;19.93;95.96
47753;BME280;2038;51.728;6.674;2023-07-16T06:23:49;100489.50;;;20.00;94.78
47753;BME280;2038;51.728;6.674;2023-07-16T06:26:16;100489.16;;;19.85;95.46
47753;BME280;2038;51.728;6.674;2023-07-16T06:28:42;100491.25;;;20.01;95.44
47753;BME280;2038;51.728;6.674;2023-07-16T06:31:08;100503.06;;;19.90;94.15
47753;BME280;2038;51.728;6.674;2023-07-16T06:33:34;100487.44;;;19.87;94.35
47753;BME280;2038;51.728;6.674;2023-07-16T06:36:00;100507.50;;;19.95;95.67
47753;BME280;2038;51.728;6.674;2023-07-16T06:38:27;100504.31;;;19.71;94.20
47753;BME280;2038;51.728;6.674;2023-07-16T06:40:53;100511.94;;;19.67;93.91
47753;BME280;2038;51.728;6.674;2023-07-16T06:43:19;100513.94;;;19.77;95.02
47753;BME280;2038;51.728;6.674;2023-07-16T06:45:45;100514.72;;;19.74;94.26
47753;BME280;2038;51.728;6.674;2023-07-16T06:48:11;100505.06;;;19.67;92.07
47753;BME280;2038;51.728;6.674;2023-07-16T06:50:38;100515.69;;;19.78;92.07
47753;BME280;2038;51.728;6.674;2023-07-16T06:53:04;100519.06;;;19.74;91.98
47753;BME280;2038;51.728;6.674;2023-07-16T06:55:30;100531.53;;;19.91;93.58
47753;BME280;2038;51.728;6.674;2023-07-16T06:57:56;100529.34;;;20.08;93.54
47753;BME280;2038;51.728;6.674;2023-07-16T07:00:23;100501.72;;;20.05;92.38
47753;BME280;2038;51.728;6.674;2023-07-16T07:02:49;100533.22;;;20.25;92.34
47753;BME280;2038;51.728;6.674;2023-07-16T07:05:15;100542.34;;;20.11;91.66
47753;BME280;2038;51.728;6.674;2023-07-16T07:07:41;100535.47;;;20.12;92.45
47753;BME280;2038;51.728;6.674;2023-07-16T07:10:09;100541.19;;;20.33;91.74
47753;BME280;2038;51.728;6.674;2023-07-16T07:12:35;100542.94;;;20.34;92.26
47753;BME280;2038;51.728;6.674;2023-07-16T07:15:07;100547.25;;;20.35;91.54
47753;BME280;2038;51.728;6.674;2023-07-16T07:17:34;100555.28;;;20.45;91.58
47753;BME280;2038;51.728;6.674;2023-07-16T07:20:01;100530.63;;;20.25;90.42
47753;BME280;2038;51.728;6.674;2023-07-16T07:22:28;100559.72;;;20.51;91.19
47753;BME280;2038;51.728;6.674;2023-07-16T07:24:55;100546.31;;;20.31;90.37
47753;BME280;2038;51.728;6.674;2023-07-16T07:27:21;100548.47;;;20.13;89.83
47753;BME280;2038;51.728;6.674;2023-07-16T07:29:47;100542.59;;;20.20;91.00
47753;BME280;2038;51.728;6.674;2023-07-16T07:32:19;100549.22;;;20.09;89.43
47753;BME280;2038;51.728;6.674;2023-07-16T07:34:46;100559.81;;;20.20;90.43
47753;BME280;2038;51.728;6.674;2023-07-16T07:37:12;100564.53;;;20.36;91.88
47753;BME280;2038;51.728;6.674;2023-07-16T07:39:38;100549.94;;;20.38;91.17
47753;BME280;2038;51.728;6.674;2023-07-16T07:42:05;100569.22;;;20.52;91.39
47753;BME280;2038;51.728;6.674;2023-07-16T07:44:32;100562.28;;;20.51;90.51
47753;BME280;2038;51.728;6.674;2023-07-16T07:46:59;100554.53;;;20.51;90.42
47753;BME280;2038;51.728;6.674;2023-07-16T07:49:25;100553.63;;;20.49;89.98
47753;BME280;2038;51.728;6.674;2023-07-16T07:51:51;100566.59;;;20.50;89.19
47753;BME280;2038;51.728;6.674;2023-07-16T07:54:17;100567.69;;;20.60;89.59
47753;BME280;2038;51.728;6.674;2023-07-16T07:56:46;100551.53;;;20.70;90.42
47753;BME280;2038;51.728;6.674;2023-07-16T07:59:12;100560.34;;;20.80;89.04
47753;BME280;2038;51.728;6.674;2023-07-16T08:01:38;100554.84;;;20.65;87.17
47753;BME280;2038;51.728;6.674;2023-07-16T08:04:05;100553.16;;;20.67;88.86
47753;BME280;2038;51.728;6.674;2023-07-16T08:06:31;100555.13;;;20.78;90.26
47753;BME280;2038;51.728;6.674;2023-07-16T08:08:57;100560.03;;;20.65;88.30
47753;BME280;2038;51.728;6.674;2023-07-16T08:11:24;100546.00;;;20.55;87.32
47753;BME280;2038;51.728;6.674;2023-07-16T08:13:50;100555.09;;;20.77;89.36
47753;BME280;2038;51.728;6.674;2023-07-16T08:16:16;100559.81;;;20.96;90.19
47753;BME280;2038;51.728;6.674;2023-07-16T08:18:42;100557.13;;;20.90;87.65
47753;BME280;2038;51.728;6.674;2023-07-16T08:21:08;100567.53;;;21.35;89.97
47753;BME280;2038;51.728;6.674;2023-07-16T08:23:35;100573.03;;;21.50;90.90
47753;BME280;2038;51.728;6.674;2023-07-16T08:26:01;100567.47;;;21.32;87.39
47753;BME280;2038;51.728;6.674;2023-07-16T08:28:27;100563.41;;;21.44;88.45
47753;BME280;2038;51.728;6.674;2023-07-16T08:30:53;100567.78;;;21.48;87.72
47753;BME280;2038;51.728;6.674;2023-07-16T08:33:20;100567.75;;;21.47;87.74
47753;BME280;2038;51.728;6.674;2023-07-16T08:35:46;100570.47;;;21.53;87.06
47753;BME280;2038;51.728;6.674;2023-07-16T08:38:12;100563.44;;;21.47;87.34
47753;BME280;2038;51.728;6.674;2023-07-16T08:40:38;100560.94;;;21.52;86.26
47753;BME280;2038;51.728;6.674;2023-07-16T08:43:06;100561.44;;;21.33;84.63
47753;BME280;2038;51.728;6.674;2023-07-16T08:45:40;100561.50;;;21.34;84.94
47753;BME280;2038;51.728;6.674;2023-07-16T08:48:10;100571.03;;;21.37;85.24
47753;BME280;2038;51.728;6.674;2023-07-16T08:50:38;100581.81;;;21.58;87.89
47753;BME280;2038;51.728;6.674;2023-07-16T08:53:07;100582.66;;;21.59;85.38
47753;BME280;2038;51.728;6.674;2023-07-16T08:55:34;100576.06;;;21.76;85.16
47753;BME280;2038;51.728;6.674;2023-07-16T08:58:04;100596.34;;;21.97;85.64
47753;BME280;2038;51.728;6.674;2023-07-16T09:00:31;100587.00;;;22.06;85.39
47753;BME280;2038;51.728;6.674;2023-07-16T09:02:57;100589.56;;;22.05;85.23
47753;BME280;2038;51.728;6.674;2023-07-16T09:05:24;100578.47;;;22.13;85.87
47753;BME280;2038;51.728;6.674;2023-07-16T09:07:51;100587.84;;;22.07;81.52
47753;BME280;2038;51.728;6.674;2023-07-16T09:10:17;100597.28;;;22.00;84.09
47753;BME280;2038;51.728;6.674;2023-07-16T09:12:47;100596.31;;;21.95;82.12
47753;BME280;2038;51.728;6.674;2023-07-16T09:15:17;100596.16;;;21.87;82.51
47753;BME280;2038;51.728;6.674;2023-07-16T09:17:48;100594.97;;;21.69;82.47
47753;BME280;2038;51.728;6.674;2023-07-16T09:20:18;100599.19;;;21.64;82.17
47753;BME280;2038;51.728;6.674;2023-07-16T09:22:44;100599.22;;;21.65;82.28
47753;BME280;2038;51.728;6.674;2023-07-16T09:25:13;100608.66;;;22.08;85.15
47753;BME280;2038;51.728;6.674;2023-07-16T09:27:39;100611.56;;;22.28;80.91
47753;BME280;2038;51.728;6.674;2023-07-16T09:30:06;100615.31;;;22.45;81.35
47753;BME280;2038;51.728;6.674;2023-07-16T09:32:40;100614.28;;;22.35;81.10
47753;BME280;2038;51.728;6.674;2023-07-16T09:35:16;100613.84;;;22.08;80.18
47753;BME280;2038;51.728;6.674;2023-07-16T09:37:43;100615.47;;;22.03;80.10
47753;BME280;2038;51.728;6.674;2023-07-16T09:40:11;100628.50;;;22.05;81.30
47753;BME280;2038;51.728;6.674;2023-07-16T09:42:42;100628.41;;;21.99;79.75
47753;BME280;2038;51.728;6.674;2023-07-16T09:45:17;100634.66;;;22.11;80.80
47753;BME280;2038;51.728;6.674;2023-07-16T09:47:45;100634.44;;;21.98;79.53
47753;BME280;2038;51.728;6.674;2023-07-16T09:50:11;100639.63;;;21.99;80.17
47753;BME280;2038;51.728;6.674;2023-07-16T09:52:38;100628.75;;;22.18;79.99
47753;BME280;2038;51.728;6.674;2023-07-16T09:55:09;100639.31;;;22.29;80.07
47753;BME280;2038;51.728;6.674;2023-07-16T09:57:38;100629.78;;;22.29;79.67
47753;BME280;2038;51.728;6.674;2023-07-16T10:00:09;100641.25;;;22.42;80.22
47753;BME280;2038;51.728;6.674;2023-07-16T10:02:40;100634.59;;;22.61;79.81
47753;BME280;2038;51.728;6.674;2023-07-16T10:05:17;100632.00;;;22.61;78.51
47753;BME280;2038;51.728;6.674;2023-07-16T10:07:52;100626.72;;;22.55;78.57
47753;BME280;2038;51.728;6.674;2023-07-16T10:10:43;100642.03;;;22.95;80.50
47753;BME280;2038;51.728;6.674;2023-07-16T10:13:23;100635.41;;;23.17;76.80
47753;BME280;2038;51.728;6.674;2023-07-16T10:15:55;100635.28;;;23.08;76.03
47753;BME280;2038;51.728;6.674;2023-07-16T10:18:34;100642.78;;;23.50;80.54
47753;BME280;2038;51.728;6.674;2023-07-16T10:21:07;100652.47;;;23.64;76.41
47753;BME280;2038;51.728;6.674;2023-07-16T10:23:43;100655.06;;;23.64;75.16
47753;BME280;2038;51.728;6.674;2023-07-16T10:26:11;100646.34;;;23.59;75.56
47753;BME280;2038;51.728;6.674;2023-07-16T10:28:39;100660.09;;;23.48;76.24
47753;BME280;2038;51.728;6.674;2023-07-16T10:31:16;100656.88;;;23.70;76.17
47753;BME280;2038;51.728;6.674;2023-07-16T10:34:03;100656.88;;;23.71;74.22
47753;BME280;2038;51.728;6.674;2023-07-16T10:36:36;100665.72;;;23.86;73.36
47753;BME280;2038;51.728;6.674;2023-07-16T10:39:04;100654.84;;;23.45;75.04
47753;BME280;2038;51.728;6.674;2023-07-16T10:41:34;100664.06;;;23.21;73.84
47753;BME280;2038;51.728;6.674;2023-07-16T10:44:00;100670.03;;;23.13;75.29
47753;BME280;2038;51.728;6.674;2023-07-16T10:46:27;100663.06;;;23.12;75.43
47753;BME280;2038;51.728;6.674;2023-07-16T10:48:54;100663.06;;;23.10;74.99
47753;BME280;2038;51.728;6.674;2023-07-16T10:51:26;100668.94;;;22.97;74.76
47753;BME280;2038;51.728;6.674;2023-07-16T10:53:55;100680.38;;;23.11;76.39
47753;BME280;2038;51.728;6.674;2023-07-16T10:56:22;100686.13;;;23.49;77.78
47753;BME280;2038;51.728;6.674;2023-07-16T10:58:49;100677.56;;;23.59;74.20
47753;BME280;2038;51.728;6.674;2023-07-16T11:01:16;100668.97;;;23.65;74.08
47753;BME280;2038;51.728;6.674;2023-07-16T11:03:42;100663.41;;;23.39;72.48
47753;BME280;2038;51.728;6.674;2023-07-16T11:06:09;100672.81;;;23.26;73.85
47753;BME280;2038;51.728;6.674;2023-07-16T11:08:37;100671.91;;;23.23;74.51
47753;BME280;2038;51.728;6.674;2023-07-16T11:11:04;100677.47;;;22.89;74.04
47753;BME280;2038;51.728;6.674;2023-07-16T11:13:32;100678.00;;;23.28;76.33
47753;BME280;2038;51.728;6.674;2023-07-16T11:16:10;100676.34;;;23.33;73.10
47753;BME280;2038;51.728;6.674;2023-07-16T11:18:37;100684.81;;;23.17;73.75
47753;BME280;2038;51.728;6.674;2023-07-16T11:21:04;100678.66;;;23.10;74.52
47753;BME280;2038;51.728;6.674;2023-07-16T11:23:36;100669.25;;;23.20;73.95
47753;BME280;2038;51.728;6.674;2023-07-16T11:26:03;100678.38;;;23.54;75.71
47753;BME280;2038;51.728;6.674;2023-07-16T11:28:37;100672.47;;;23.68;72.43
47753;BME280;2038;51.728;6.674;2023-07-16T11:31:17;100681.38;;;23.92;74.54
47753;BME280;2038;51.728;6.674;2023-07-16T11:33:44;100683.69;;;23.64;73.40
47753;BME280;2038;51.728;6.674;2023-07-16T11:36:11;100692.88;;;23.37;73.52
47753;BME280;2038;51.728;6.674;2023-07-16T11:38:38;100688.56;;;23.40;73.96
47753;BME280;2038;51.728;6.674;2023-07-16T11:41:05;100690.44;;;23.46;74.91
47753;BME280;2038;51.728;6.674;2023-07-16T11:43:35;100698.13;;;23.41;73.10
47753;BME280;2038;51.728;6.674;2023-07-16T11:46:03;100690.41;;;23.43;74.80
47753;BME280;2038;51.728;6.674;2023-07-16T11:48:39;100699.38;;;23.69;74.06
47753;BME280;2038;51.728;6.674;2023-07-16T11:51:06;100692.41;;;23.66;73.62
47753;BME280;2038;51.728;6.674;2023-07-16T11:53:32;100696.72;;;23.64;72.88
47753;BME280;2038;51.728;6.674;2023-07-16T11:55:58;100709.22;;;23.97;74.06
47753;BME280;2038;51.728;6.674;2023-07-16T11:58:24;100698.72;;;23.88;73.21
47753;BME280;2038;51.728;6.674;2023-07-16T12:00:50;100702.50;;;24.14;74.08
47753;BME280;2038;51.728;6.674;2023-07-16T12:03:17;100699.31;;;24.47;71.62
47753;BME280;2038;51.728;6.674;2023-07-16T12:05:44;100697.56;;;24.48;71.21
47753;BME280;2038;51.728;6.674;2023-07-16T12:08:10;100717.69;;;24.62;72.51
47753;BME280;2038;51.728;6.674;2023-07-16T12:10:40;100707.25;;;24.62;69.15
47753;BME280;2038;51.728;6.674;2023-07-16T12:13:07;100698.53;;;24.57;68.97
47753;BME280;2038;51.728;6.674;2023-07-16T12:15:33;100697.56;;;24.43;69.81
47753;BME280;2038;51.728;6.674;2023-07-16T12:17:59;100709.66;;;24.40;70.00
47753;BME280;2038;51.728;6.674;2023-07-16T12:20:26;100709.50;;;24.18;69.78
47753;BME280;2038;51.728;6.674;2023-07-16T12:22:52;100709.63;;;24.37;70.07
47753;BME280;2038;51.728;6.674;2023-07-16T12:25:19;100707.00;;;24.34;68.98
47753;BME280;2038;51.728;6.674;2023-07-16T12:27:46;100710.47;;;24.33;70.18
47753;BME280;2038;51.728;6.674;2023-07-16T12:30:12;100710.56;;;24.42;68.67
47753;BME280;2038;51.728;6.674;2023-07-16T12:32:38;100714.97;;;24.52;69.11
47753;BME280;2038;51.728;6.674;2023-07-16T12:35:05;100716.81;;;24.62;69.79
47753;BME280;2038;51.728;6.674;2023-07-16T12:37:31;100724.72;;;24.74;69.15
47753;BME280;2038;51.728;6.674;2023-07-16T12:39:57;100719.75;;;25.06;69.25
47753;BME280;2038;51.728;6.674;2023-07-16T12:42:23;100731.88;;;25.01;66.50
47753;BME280;2038;51.728;6.674;2023-07-16T12:44:50;100720.69;;;25.20;68.28
47753;BME280;2038;51.728;6.674;2023-07-16T12:47:16;100730.28;;;25.24;67.18
47753;BME280;2038;51.728;6.674;2023-07-16T12:49:42;100732.81;;;25.07;66.22
47753;BME280;2038;51.728;6.674;2023-07-16T12:52:08;100743.25;;;25.12;66.68
47753;BME280;2038;51.728;6.674;2023-07-16T12:54:35;100725.81;;;25.05;66.31
47753;BME280;2038;51.728;6.674;2023-07-16T12:57:01;100726.69;;;25.05;66.73
47753;BME280;2038;51.728;6.674;2023-07-16T12:59:28;100731.81;;;24.90;66.37
47753;BME280;2038;51.728;6.674;2023-07-16T13:01:55;100741.53;;;25.11;66.34
47753;BME280;2038;51.728;6.674;2023-07-16T13:04:21;100750.34;;;25.34;68.09
47753;BME280;2038;51.728;6.674;2023-07-16T13:06:47;100742.56;;;25.39;66.81